Time;durP1;ratioP1;P1;durP2;ratioP2;P2;SDS_P1;SDS_P2;PMS_P1;PMS_P2;Temp;Humidity;BMP_temperature;BMP_pressure;BME280_temperature;BME280_humidity;BME280_pressure;Samples;Min_cycle;Max_cycle;Signal;HPM_P1;HPM_P2
2021/06/26 00:01:20;;;;;;;;;;;;;;;18.80;66.86;100501.06;5056389;28;791;-38
2021/06/26 00:03:46;;;;;;;;;;;;;;;19.06;67.04;100498.00;5056090;28;756;-61
2021/06/26 00:06:11;;;;;;;;;;;;;;;19.13;67.46;100494.88;5055926;28;779;-38
2021/06/26 00:08:36;;;;;;;;;;;;;;;18.98;66.82;100501.41;5056169;28;800;-61
2021/06/26 00:11:02;;;;;;;;;;;;;;;18.62;65.65;100488.91;5055985;28;784;-41
2021/06/26 00:13:27;;;;;;;;;;;;;;;18.62;64.67;100504.59;5055662;28;1922;-38
2021/06/26 00:15:53;;;;;;;;;;;;;;;18.55;64.95;100501.38;5056242;28;983;-61
2021/06/26 00:18:18;;;;;;;;;;;;;;;18.49;65.56;100510.81;5055956;28;813;-62
2021/06/26 00:20:44;;;;;;;;;;;;;;;18.49;65.77;100510.81;5055843;28;784;-61
2021/06/26 00:23:09;;;;;;;;;;;;;;;18.55;65.85;100509.63;5056025;28;1234;-38
2021/06/26 00:25:35;;;;;;;;;;;;;;;18.49;66.41;100502.56;5055871;28;811;-38
2021/06/26 00:28:00;;;;;;;;;;;;;;;18.58;66.21;100498.03;5055516;28;747;-38
2021/06/26 00:30:26;;;;;;;;;;;;;;;18.59;66.08;100500.50;5055824;28;962;-51
2021/06/26 00:32:52;;;;;;;;;;;;;;;18.50;67.00;100506.97;5056303;28;1987;-38
2021/06/26 00:35:17;;;;;;;;;;;;;;;18.55;67.00;100501.38;5051284;28;1222;-38
2021/06/26 00:37:43;;;;;;;;;;;;;;;18.52;67.13;100494.50;5036051;28;752;-58
2021/06/26 00:40:08;;;;;;;;;;;;;;;18.70;66.58;100490.16;5039252;28;820;-60
2021/06/26 00:42:34;;;;;;;;;;;;;;;18.77;66.85;100495.31;5040126;28;795;-39
2021/06/26 00:45:00;;;;;;;;;;;;;;;18.66;67.07;100475.34;5052659;28;972;-38
2021/06/26 00:47:25;;;;;;;;;;;;;;;18.66;66.98;100463.53;5059512;28;791;-39
2021/06/26 00:49:51;;;;;;;;;;;;;;;18.60;67.48;100462.78;5059956;28;736;-38
2021/06/26 00:52:16;;;;;;;;;;;;;;;18.73;67.45;100453.78;5059397;28;783;-60
2021/06/26 00:54:42;;;;;;;;;;;;;;;18.78;67.07;100456.47;5059577;28;2012;-38
2021/06/26 00:57:07;;;;;;;;;;;;;;;18.71;66.66;100452.44;5041856;28;812;-39
2021/06/26 00:59:33;;;;;;;;;;;;;;;18.62;67.31;100452.25;5040352;28;1022;-38
2021/06/26 01:01:58;;;;;;;;;;;;;;;18.70;67.10;100451.63;5059848;28;795;-38
2021/06/26 01:04:23;;;;;;;;;;;;;;;18.77;66.99;100451.25;5059660;28;828;-38
2021/06/26 01:06:49;;;;;;;;;;;;;;;18.56;67.69;100458.97;5058984;28;784;-38
2021/06/26 01:09:14;;;;;;;;;;;;;;;18.67;67.48;100457.72;5059324;28;823;-38
2021/06/26 01:11:40;;;;;;;;;;;;;;;18.72;67.20;100451.31;5059456;28;803;-38
2021/06/26 01:14:05;;;;;;;;;;;;;;;18.79;66.83;100460.88;5058405;28;1909;-60
2021/06/26 01:16:30;;;;;;;;;;;;;;;18.33;66.15;100458.69;5059365;28;756;-55
2021/06/26 01:18:56;;;;;;;;;;;;;;;18.69;67.11;100444.47;5059057;28;812;-60
2021/06/26 01:21:21;;;;;;;;;;;;;;;18.61;67.15;100442.38;5058861;28;772;-41
2021/06/26 01:23:50;;;;;;;;;;;;;;;18.32;65.44;100435.03;5059431;28;1072;-61
2021/06/26 01:26:16;;;;;;;;;;;;;;;18.04;66.10;100456.00;5059088;28;816;-38
2021/06/26 01:28:41;;;;;;;;;;;;;;;18.44;66.42;100465.72;5058033;28;1010;-38
2021/06/26 01:31:07;;;;;;;;;;;;;;;18.53;66.10;100471.38;5059026;28;811;-38
2021/06/26 01:33:32;;;;;;;;;;;;;;;18.18;65.90;100484.44;5058854;28;1906;-40
2021/06/26 01:35:57;;;;;;;;;;;;;;;17.94;65.12;100485.22;5058493;28;1183;-39
2021/06/26 01:38:23;;;;;;;;;;;;;;;18.29;65.67;100482.41;5058743;28;816;-38
2021/06/26 01:40:48;;;;;;;;;;;;;;;18.41;67.13;100487.50;5041205;28;1107;-38
2021/06/26 01:43:14;;;;;;;;;;;;;;;18.72;67.44;100487.13;5058564;28;783;-62
2021/06/26 01:45:39;;;;;;;;;;;;;;;19.00;67.70;100481.81;5040785;28;967;-42
2021/06/26 01:48:05;;;;;;;;;;;;;;;18.98;68.26;100488.47;5058898;28;873;-38
2021/06/26 01:50:31;;;;;;;;;;;;;;;18.87;67.84;100486.09;5057526;28;951;-38
2021/06/26 01:52:56;;;;;;;;;;;;;;;18.49;67.13;100483.28;5058595;28;1914;-37
2021/06/26 01:55:22;;;;;;;;;;;;;;;18.18;66.22;100491.88;5058575;28;844;-38
2021/06/26 01:57:47;;;;;;;;;;;;;;;18.34;66.14;100487.88;5058787;28;799;-41
2021/06/26 02:00:13;;;;;;;;;;;;;;;18.51;67.56;100498.41;5057785;28;1014;-39
2021/06/26 02:02:40;;;;;;;;;;;;;;;18.71;68.02;100502.84;5058456;28;910;-39
2021/06/26 02:05:06;;;;;;;;;;;;;;;18.49;66.91;100506.13;5058144;28;855;-63
2021/06/26 02:07:31;;;;;;;;;;;;;;;18.37;65.64;100509.28;5039907;28;891;-39
2021/06/26 02:09:57;;;;;;;;;;;;;;;18.11;65.21;100501.28;5058479;28;831;-63
2021/06/26 02:12:23;;;;;;;;;;;;;;;18.04;64.99;100500.81;5057924;28;756;-54
2021/06/26 02:14:52;;;;;;;;;;;;;;;18.38;65.36;100488.91;5057599;28;1914;-62
2021/06/26 02:17:17;;;;;;;;;;;;;;;18.58;66.53;100503.53;5058444;28;768;-39
2021/06/26 02:19:43;;;;;;;;;;;;;;;18.66;67.63;100504.84;5057979;28;783;-54
2021/06/26 02:22:08;;;;;;;;;;;;;;;18.85;68.02;100513.94;5058092;28;1435;-39
2021/06/26 02:24:33;;;;;;;;;;;;;;;18.91;67.82;100512.78;5058020;28;832;-47
2021/06/26 02:26:59;;;;;;;;;;;;;;;19.18;65.71;100502.25;5058056;28;728;-39
2021/06/26 02:29:24;;;;;;;;;;;;;;;19.08;67.31;100493.03;5057092;28;1007;-59
2021/06/26 02:31:50;;;;;;;;;;;;;;;19.34;68.06;100498.16;5058020;28;731;-40
2021/06/26 02:34:15;;;;;;;;;;;;;;;18.94;68.64;100516.91;5057971;28;1969;-62
2021/06/26 02:36:41;;;;;;;;;;;;;;;18.62;67.25;100521.94;5041901;28;1211;-47
2021/06/26 02:39:07;;;;;;;;;;;;;;;18.39;66.92;100520.81;5019960;28;740;-61
2021/06/26 02:41:32;;;;;;;;;;;;;;;18.34;66.82;100501.63;5037381;28;787;-39
2021/06/26 02:43:57;;;;;;;;;;;;;;;18.30;66.81;100504.13;5041867;28;1004;-63
2021/06/26 02:46:23;;;;;;;;;;;;;;;18.56;65.99;100505.78;5057704;28;784;-41
2021/06/26 02:48:48;;;;;;;;;;;;;;;18.65;65.79;100509.53;5057416;28;776;-62
2021/06/26 02:51:14;;;;;;;;;;;;;;;18.32;66.71;100505.78;5057407;28;768;-58
2021/06/26 02:53:39;;;;;;;;;;;;;;;18.46;66.37;100513.03;5057753;28;1914;-61
2021/06/26 02:56:05;;;;;;;;;;;;;;;18.51;67.00;100511.34;5057000;28;983;-39
2021/06/26 02:58:30;;;;;;;;;;;;;;;18.50;67.55;100507.78;5056994;28;962;-39
2021/06/26 03:00:56;;;;;;;;;;;;;;;18.66;67.33;100513.09;5057224;28;780;-39
2021/06/26 03:03:21;;;;;;;;;;;;;;;18.73;66.94;100517.16;5057293;28;811;-38
2021/06/26 03:05:47;;;;;;;;;;;;;;;18.78;66.98;100519.81;5057326;28;780;-37
2021/06/26 03:08:13;;;;;;;;;;;;;;;18.75;66.60;100505.84;5057197;28;756;-41
2021/06/26 03:10:38;;;;;;;;;;;;;;;18.57;67.99;100510.19;5038285;28;792;-38
2021/06/26 03:13:04;;;;;;;;;;;;;;;18.74;68.53;100502.25;5038960;28;1910;-38
2021/06/26 03:15:29;;;;;;;;;;;;;;;18.90;68.75;100491.06;5056623;28;1010;-38
2021/06/26 03:17:54;;;;;;;;;;;;;;;19.15;68.35;100501.72;5056780;28;795;-40
2021/06/26 03:20:20;;;;;;;;;;;;;;;19.27;68.30;100497.72;5056685;28;760;-38
2021/06/26 03:22:45;;;;;;;;;;;;;;;19.35;67.98;100483.25;5056778;28;1091;-39
2021/06/26 03:25:13;;;;;;;;;;;;;;;19.27;68.50;100486.69;5056849;28;755;-38
2021/06/26 03:27:39;;;;;;;;;;;;;;;19.26;68.14;100480.31;5056520;28;895;-39
2021/06/26 03:30:05;;;;;;;;;;;;;;;19.20;68.33;100483.47;5056495;28;963;-40
2021/06/26 03:32:30;;;;;;;;;;;;;;;19.25;68.14;100473.19;5056695;28;760;-42
2021/06/26 03:34:55;;;;;;;;;;;;;;;19.51;67.22;100477.50;5056636;28;1977;-39
2021/06/26 03:37:21;;;;;;;;;;;;;;;19.64;67.02;100485.81;5038227;28;900;-38
2021/06/26 03:39:46;;;;;;;;;;;;;;;19.81;66.37;100490.78;5022007;28;788;-39
2021/06/26 03:42:12;;;;;;;;;;;;;;;19.75;67.60;100486.44;5037911;28;787;-39
2021/06/26 03:44:37;;;;;;;;;;;;;;;19.83;68.55;100494.06;5054941;28;1417;-53
2021/06/26 03:47:03;;;;;;;;;;;;;;;19.66;70.25;100488.28;5056714;28;779;-39
2021/06/26 03:49:32;;;;;;;;;;;;;;;19.48;68.91;100473.38;5056135;28;820;-41
2021/06/26 03:51:57;;;;;;;;;;;;;;;19.65;68.51;100476.41;5056762;28;736;-39
2021/06/26 03:54:23;;;;;;;;;;;;;;;19.60;68.62;100489.47;5056436;28;1910;-40
2021/06/26 03:56:49;;;;;;;;;;;;;;;19.78;68.43;100493.31;5055978;28;812;-39
2021/06/26 03:59:14;;;;;;;;;;;;;;;19.94;68.75;100499.41;5055343;28;1034;-38
2021/06/26 04:01:40;;;;;;;;;;;;;;;20.11;69.37;100504.34;5056124;28;836;-38
2021/06/26 04:04:05;;;;;;;;;;;;;;;20.30;69.47;100502.34;5056168;28;768;-38
2021/06/26 04:06:31;;;;;;;;;;;;;;;20.17;70.19;100503.97;5056201;28;859;-37
2021/06/26 04:08:56;;;;;;;;;;;;;;;20.37;69.04;100499.16;5056224;28;783;-39
2021/06/26 04:11:22;;;;;;;;;;;;;;;20.20;68.11;100496.19;5038037;28;1103;-39
2021/06/26 04:13:47;;;;;;;;;;;;;;;20.33;66.04;100523.81;5055155;28;1980;-39
2021/06/26 04:16:12;;;;;;;;;;;;;;;20.38;64.75;100531.16;5056170;28;752;-52
2021/06/26 04:18:38;;;;;;;;;;;;;;;20.43;64.00;100521.97;5055601;28;732;-39
2021/06/26 04:21:03;;;;;;;;;;;;;;;20.14;64.34;100512.81;5055946;28;804;-39
2021/06/26 04:23:29;;;;;;;;;;;;;;;20.13;63.92;100519.50;5054701;28;1199;-39
2021/06/26 04:25:54;;;;;;;;;;;;;;;20.31;63.61;100508.66;5055524;28;768;-39
2021/06/26 04:28:20;;;;;;;;;;;;;;;20.26;64.84;100501.31;5038386;28;1278;-39
2021/06/26 04:30:51;;;;;;;;;;;;;;;20.14;67.16;100504.53;5037748;28;1381;-39
2021/06/26 04:33:16;;;;;;;;;;;;;;;20.51;66.85;100508.28;5055479;28;1910;-38
2021/06/26 04:35:42;;;;;;;;;;;;;;;20.60;67.67;100521.38;5055933;28;1084;-39
2021/06/26 04:38:08;;;;;;;;;;;;;;;20.60;68.21;100524.94;5047855;28;1084;-39
2021/06/26 04:40:33;;;;;;;;;;;;;;;20.78;68.26;100528.75;5035446;28;863;-39
2021/06/26 04:42:59;;;;;;;;;;;;;;;20.82;68.61;100529.78;5035877;28;761;-41
2021/06/26 04:45:24;;;;;;;;;;;;;;;20.87;68.78;100522.50;5051684;28;971;-40
2021/06/26 04:47:49;;;;;;;;;;;;;;;20.93;68.79;100511.03;5055134;28;808;-41
2021/06/26 04:50:15;;;;;;;;;;;;;;;20.65;68.13;100507.44;5055879;28;784;-39
2021/06/26 04:52:41;;;;;;;;;;;;;;;19.64;67.40;100487.72;5055500;28;788;-40
2021/06/26 04:55:07;;;;;;;;;;;;;;;18.88;65.87;100487.78;5055298;28;1922;-39
2021/06/26 04:57:32;;;;;;;;;;;;;;;18.47;64.17;100492.66;5055629;28;769;-39
2021/06/26 04:59:57;;;;;;;;;;;;;;;18.26;62.01;100481.06;5055100;28;1002;-40
2021/06/26 05:02:23;;;;;;;;;;;;;;;18.17;59.49;100471.78;5055323;28;748;-39
2021/06/26 05:04:48;;;;;;;;;;;;;;;17.95;57.68;100472.31;5055902;28;840;-39
2021/06/26 05:07:14;;;;;;;;;;;;;;;18.19;61.33;100474.25;5055248;28;496;-39
2021/06/26 05:09:39;;;;;;;;;;;;;;;18.64;64.00;100481.16;5055606;28;855;-38
2021/06/26 05:12:05;;;;;;;;;;;;;;;18.87;66.23;100480.59;5055327;28;812;-41
2021/06/26 05:14:30;;;;;;;;;;;;;;;19.08;67.32;100473.72;5054949;28;1979;-39
2021/06/26 05:16:56;;;;;;;;;;;;;;;19.11;68.07;100472.28;5055456;28;763;-39
2021/06/26 05:19:21;;;;;;;;;;;;;;;19.15;68.12;100468.66;5055328;28;811;-39
2021/06/26 05:21:47;;;;;;;;;;;;;;;19.39;67.60;100478.78;5037039;28;909;-40
2021/06/26 05:24:12;;;;;;;;;;;;;;;19.19;68.31;100481.84;5055041;28;1060;-39
2021/06/26 05:26:37;;;;;;;;;;;;;;;19.37;67.76;100475.47;5057847;28;756;-39
2021/06/26 05:29:03;;;;;;;;;;;;;;;19.48;67.42;100465.13;5058441;28;1034;-38
2021/06/26 05:31:28;;;;;;;;;;;;;;;19.63;66.88;100455.78;5058714;28;800;-39
2021/06/26 05:33:54;;;;;;;;;;;;;;;19.60;67.31;100459.13;5058694;28;1979;-39
2021/06/26 05:36:19;;;;;;;;;;;;;;;19.76;66.46;100460.50;5040761;28;1143;-40
2021/06/26 05:38:45;;;;;;;;;;;;;;;19.75;66.65;100463.56;5058526;28;771;-42
2021/06/26 05:41:10;;;;;;;;;;;;;;;19.94;65.89;100474.59;5058739;28;740;-39
2021/06/26 05:43:36;;;;;;;;;;;;;;;19.77;66.40;100481.44;5039465;28;1166;-38
2021/06/26 05:46:01;;;;;;;;;;;;;;;19.97;65.50;100485.00;5058470;28;839;-42
2021/06/26 05:48:27;;;;;;;;;;;;;;;19.83;65.71;100487.72;5058304;28;883;-40
2021/06/26 05:50:52;;;;;;;;;;;;;;;19.94;65.14;100482.88;5059057;28;760;-40
2021/06/26 05:53:18;;;;;;;;;;;;;;;19.82;65.55;100494.38;5058867;28;1913;-41
2021/06/26 05:55:56;;;;;;;;;;;;;;;20.06;64.64;100491.44;5058236;28;803;-40
2021/06/26 05:58:22;;;;;;;;;;;;;;;20.04;64.75;100493.69;5058560;28;791;-40
2021/06/26 06:00:47;;;;;;;;;;;;;;;19.95;64.80;100506.56;5057918;28;1011;-39
2021/06/26 06:03:13;;;;;;;;;;;;;;;20.02;64.36;100518.03;5058024;28;852;-41
2021/06/26 06:05:38;;;;;;;;;;;;;;;20.14;63.67;100518.34;5058486;28;836;-40
2021/06/26 06:08:04;;;;;;;;;;;;;;;19.59;63.91;100531.97;5058637;28;755;-41
2021/06/26 06:10:29;;;;;;;;;;;;;;;19.66;65.77;100527.69;5058303;28;858;-40
2021/06/26 06:12:55;;;;;;;;;;;;;;;20.10;67.19;100531.13;5058347;28;827;-40
2021/06/26 06:15:20;;;;;;;;;;;;;;;20.12;69.23;100528.09;5057655;28;1979;-41
2021/06/26 06:17:46;;;;;;;;;;;;;;;20.28;69.68;100520.31;5057763;28;828;-40
2021/06/26 06:20:11;;;;;;;;;;;;;;;20.29;70.01;100517.25;5058200;28;815;-41
2021/06/26 06:22:37;;;;;;;;;;;;;;;20.51;68.22;100511.03;5058176;28;783;-41
2021/06/26 06:25:05;;;;;;;;;;;;;;;20.35;67.40;100520.72;5057714;28;1025;-40
2021/06/26 06:27:31;;;;;;;;;;;;;;;20.44;65.39;100521.69;5058193;28;803;-40
2021/06/26 06:29:56;;;;;;;;;;;;;;;20.31;64.59;100537.13;5057413;28;1018;-40
2021/06/26 06:32:22;;;;;;;;;;;;;;;20.33;63.45;100529.31;5057613;28;792;-40
2021/06/26 06:34:48;;;;;;;;;;;;;;;20.50;62.03;100534.25;5057357;28;1976;-39
2021/06/26 06:37:13;;;;;;;;;;;;;;;20.45;61.67;100528.81;5037288;28;791;-40
2021/06/26 06:39:39;;;;;;;;;;;;;;;20.39;61.58;100534.75;5037965;28;1108;-58
2021/06/26 06:42:04;;;;;;;;;;;;;;;20.21;62.88;100540.03;5020116;28;1262;-40
2021/06/26 06:44:30;;;;;;;;;;;;;;;20.42;65.20;100537.72;5045489;28;992;-40
2021/06/26 06:46:55;;;;;;;;;;;;;;;20.59;66.94;100528.81;5057488;28;760;-40
2021/06/26 06:49:20;;;;;;;;;;;;;;;20.43;69.67;100530.28;5057344;28;781;-39
2021/06/26 06:51:46;;;;;;;;;;;;;;;20.64;69.23;100537.00;5057472;28;768;-39
2021/06/26 06:54:11;;;;;;;;;;;;;;;20.70;69.24;100523.13;5057184;28;1977;-40
2021/06/26 06:56:37;;;;;;;;;;;;;;;20.82;67.33;100529.78;5057291;28;761;-40
2021/06/26 06:59:02;;;;;;;;;;;;;;;20.71;65.83;100525.59;5056699;28;1010;-40
2021/06/26 07:01:28;;;;;;;;;;;;;;;20.65;63.91;100524.00;5057040;28;836;-40
2021/06/26 07:03:53;;;;;;;;;;;;;;;20.52;61.44;100515.44;5057014;28;867;-40
2021/06/26 07:06:19;;;;;;;;;;;;;;;20.41;59.61;100514.00;5057063;28;819;-39
2021/06/26 07:08:44;;;;;;;;;;;;;;;19.99;58.35;100516.69;5056870;28;760;-41
2021/06/26 07:11:10;;;;;;;;;;;;;;;20.12;63.41;100519.81;5056830;28;867;-39
2021/06/26 07:13:35;;;;;;;;;;;;;;;20.33;65.76;100514.72;5056484;28;1906;-57
2021/06/26 07:16:00;;;;;;;;;;;;;;;20.51;66.55;100513.00;5056952;28;763;-38
2021/06/26 07:18:26;;;;;;;;;;;;;;;20.67;66.42;100516.25;5038381;28;902;-40
2021/06/26 07:20:52;;;;;;;;;;;;;;;20.43;65.41;100519.22;5057082;28;807;-39
2021/06/26 07:23:17;;;;;;;;;;;;;;;19.92;63.54;100515.44;5056462;28;1095;-38
2021/06/26 07:25:43;;;;;;;;;;;;;;;19.37;62.59;100508.56;5056540;28;819;-39
2021/06/26 07:28:08;;;;;;;;;;;;;;;18.99;64.23;100519.59;5056670;28;496;-39
2021/06/26 07:30:33;;;;;;;;;;;;;;;18.95;66.02;100518.53;5056152;28;962;-39
2021/06/26 07:32:59;;;;;;;;;;;;;;;18.88;68.20;100509.81;5056646;28;807;-38
2021/06/26 07:35:24;;;;;;;;;;;;;;;18.99;69.15;100503.06;5051126;28;1909;-38
2021/06/26 07:37:50;;;;;;;;;;;;;;;19.24;69.71;100503.81;5036187;28;787;-39
2021/06/26 07:40:18;;;;;;;;;;;;;;;19.53;67.97;100494.53;5036964;28;828;-40
2021/06/26 07:42:44;;;;;;;;;;;;;;;19.52;67.09;100503.94;5036622;28;748;-41
2021/06/26 07:45:09;;;;;;;;;;;;;;;19.78;65.80;100507.94;5032310;28;1103;-40
2021/06/26 07:47:35;;;;;;;;;;;;;;;19.47;66.67;100497.41;5056110;28;831;-40
2021/06/26 07:50:00;;;;;;;;;;;;;;;19.79;65.96;100504.06;5055903;28;843;-40
2021/06/26 07:52:26;;;;;;;;;;;;;;;19.79;66.25;100514.25;5055839;28;796;-40
2021/06/26 07:54:51;;;;;;;;;;;;;;;19.81;65.94;100529.44;5056460;28;1914;-41
2021/06/26 07:57:17;;;;;;;;;;;;;;;19.86;66.06;100524.94;5056321;28;815;-40
2021/06/26 07:59:42;;;;;;;;;;;;;;;19.87;65.89;100521.06;5055495;28;1018;-40
2021/06/26 08:02:08;;;;;;;;;;;;;;;19.96;65.51;100498.00;5056254;28;736;-39
2021/06/26 08:04:33;;;;;;;;;;;;;;;19.75;66.01;100485.63;5056160;28;756;-59
2021/06/26 08:06:58;;;;;;;;;;;;;;;19.58;66.46;100486.19;5055622;28;803;-40
2021/06/26 08:09:24;;;;;;;;;;;;;;;19.88;65.35;100486.81;5056205;28;812;-39
2021/06/26 08:11:49;;;;;;;;;;;;;;;19.73;65.60;100485.94;5056210;28;761;-38
2021/06/26 08:14:15;;;;;;;;;;;;;;;19.82;65.40;100481.41;5054855;28;1917;-39
2021/06/26 08:16:40;;;;;;;;;;;;;;;19.93;64.78;100465.47;5038376;28;1241;-53
2021/06/26 08:19:06;;;;;;;;;;;;;;;20.12;64.04;100462.63;5056066;28;732;-39
2021/06/26 08:21:31;;;;;;;;;;;;;;;19.96;64.62;100466.81;5055543;28;823;-39
2021/06/26 08:23:57;;;;;;;;;;;;;;;20.08;63.91;100461.63;5056070;28;1163;-38
2021/06/26 08:26:22;;;;;;;;;;;;;;;20.18;63.40;100461.41;5055750;28;760;-38
2021/06/26 08:28:47;;;;;;;;;;;;;;;20.12;63.34;100468.16;5055075;28;971;-40
2021/06/26 08:31:13;;;;;;;;;;;;;;;20.05;63.75;100473.28;5037983;28;864;-39
2021/06/26 08:33:38;;;;;;;;;;;;;;;20.07;64.64;100482.03;5055882;28;1922;-40
2021/06/26 08:36:04;;;;;;;;;;;;;;;19.36;67.68;100490.38;5055458;28;1187;-41
2021/06/26 08:38:30;;;;;;;;;;;;;;;19.88;68.66;100486.81;5037662;28;1306;-39
2021/06/26 08:40:55;;;;;;;;;;;;;;;19.79;69.68;100497.69;5056416;28;755;-39
2021/06/26 08:43:22;;;;;;;;;;;;;;;20.11;68.76;100496.06;5055777;28;764;-38
2021/06/26 08:45:48;;;;;;;;;;;;;;;20.28;66.63;100498.22;5054402;28;1017;-39
2021/06/26 08:48:13;;;;;;;;;;;;;;;20.26;64.88;100503.22;5055811;28;761;-60
2021/06/26 08:50:39;;;;;;;;;;;;;;;20.27;63.33;100500.19;5055905;28;760;-43
2021/06/26 08:53:04;;;;;;;;;;;;;;;20.15;63.10;100500.66;5037188;28;860;-40
2021/06/26 08:55:30;;;;;;;;;;;;;;;20.20;63.52;100496.97;5055402;28;1902;-50
2021/06/26 08:57:55;;;;;;;;;;;;;;;20.05;65.16;100497.28;5055550;28;756;-40
2021/06/26 09:00:24;;;;;;;;;;;;;;;20.12;65.48;100493.00;5056764;28;967;-50
2021/06/26 09:02:50;;;;;;;;;;;;;;;20.27;65.49;100488.31;5059889;28;795;-40
2021/06/26 09:05:25;;;;;;;;;;;;;;;19.79;68.60;100490.25;5041490;28;751;-41
2021/06/26 09:07:50;;;;;;;;;;;;;;;20.20;67.63;100485.13;5058994;28;795;-43
2021/06/26 09:10:17;;;;;;;;;;;;;;;20.45;66.76;100487.38;5059477;28;811;-41
2021/06/26 09:12:42;;;;;;;;;;;;;;;20.40;67.13;100483.91;5059753;28;776;-42
2021/06/26 09:15:08;;;;;;;;;;;;;;;20.32;67.75;100469.69;5058527;28;1909;-42
2021/06/26 09:17:34;;;;;;;;;;;;;;;20.24;68.18;100473.16;5058769;28;787;-42
2021/06/26 09:20:05;;;;;;;;;;;;;;;20.51;67.33;100458.56;5059206;28;776;-48
2021/06/26 09:22:36;;;;;;;;;;;;;;;20.70;66.84;100454.06;5058925;28;804;-40
2021/06/26 09:25:02;;;;;;;;;;;;;;;20.79;66.74;100449.44;5058812;28;1071;-42
2021/06/26 09:27:31;;;;;;;;;;;;;;;20.79;66.83;100458.56;5041312;28;728;-42
2021/06/26 09:29:57;;;;;;;;;;;;;;;20.65;67.43;100457.69;5058404;28;966;-41
2021/06/26 09:32:23;;;;;;;;;;;;;;;20.83;66.98;100451.28;5058780;28;792;-40
2021/06/26 09:34:49;;;;;;;;;;;;;;;20.94;66.68;100440.78;5058591;28;1974;-40
2021/06/26 09:37:17;;;;;;;;;;;;;;;20.41;66.68;100431.16;5038398;28;863;-40
2021/06/26 09:39:43;;;;;;;;;;;;;;;20.47;67.66;100418.06;5039068;28;807;-42
2021/06/26 09:42:16;;;;;;;;;;;;;;;20.75;67.39;100406.97;5038859;28;840;-41
2021/06/26 09:44:50;;;;;;;;;;;;;;;20.81;67.35;100400.22;5048645;28;1023;-41
2021/06/26 09:47:29;;;;;;;;;;;;;;;20.85;67.05;100384.63;5058404;28;787;-44
2021/06/26 09:50:11;;;;;;;;;;;;;;;19.97;67.91;100388.41;5058774;28;748;-43
2021/06/26 09:52:39;;;;;;;;;;;;;;;19.41;67.83;100382.78;5058366;28;815;-41
2021/06/26 09:55:14;;;;;;;;;;;;;;;19.20;66.61;100389.78;5058904;28;1977;-40
2021/06/26 09:57:39;;;;;;;;;;;;;;;18.93;66.28;100380.28;5058070;28;764;-41
2021/06/26 10:00:05;;;;;;;;;;;;;;;18.82;65.73;100379.56;5057851;28;1017;-40
2021/06/26 10:02:31;;;;;;;;;;;;;;;18.70;66.49;100388.25;5058524;28;613;-41
2021/06/26 10:04:57;;;;;;;;;;;;;;;18.70;66.71;100392.97;5040123;28;892;-40
2021/06/26 10:07:22;;;;;;;;;;;;;;;18.70;66.21;100399.28;5057738;28;744;-39
2021/06/26 10:09:48;;;;;;;;;;;;;;;18.89;64.89;100404.03;5058453;28;716;-39
2021/06/26 10:12:13;;;;;;;;;;;;;;;18.70;64.40;100413.06;5038931;28;819;-38
2021/06/26 10:14:39;;;;;;;;;;;;;;;18.45;63.83;100409.53;5057193;28;1963;-39
2021/06/26 10:17:04;;;;;;;;;;;;;;;18.38;63.26;100416.50;5057920;28;835;-39
2021/06/26 10:19:30;;;;;;;;;;;;;;;18.31;62.93;100416.88;5040429;28;820;-40
2021/06/26 10:21:55;;;;;;;;;;;;;;;18.35;62.74;100420.66;5039408;28;919;-40
2021/06/26 10:24:24;;;;;;;;;;;;;;;18.61;61.51;100420.34;5057975;28;1143;-42
2021/06/26 10:26:49;;;;;;;;;;;;;;;18.55;61.77;100427.88;5057836;28;788;-41
2021/06/26 10:29:15;;;;;;;;;;;;;;;18.26;62.54;100437.03;5056807;28;908;-39
2021/06/26 10:31:41;;;;;;;;;;;;;;;18.18;62.65;100445.91;5057759;28;788;-38
2021/06/26 10:34:10;;;;;;;;;;;;;;;18.19;62.61;100450.31;5057683;28;1913;-40
2021/06/26 10:36:36;;;;;;;;;;;;;;;18.45;61.75;100452.75;5042096;28;1099;-39
2021/06/26 10:39:01;;;;;;;;;;;;;;;18.48;61.60;100452.16;5037966;28;819;-39
2021/06/26 10:41:27;;;;;;;;;;;;;;;18.42;61.56;100450.59;5037727;28;792;-39
2021/06/26 10:43:53;;;;;;;;;;;;;;;18.27;62.07;100457.94;5022629;28;980;-40
2021/06/26 10:46:19;;;;;;;;;;;;;;;18.00;62.81;100466.75;5039476;28;895;-41
2021/06/26 10:49:04;;;;;;;;;;;;;;;18.24;63.86;100460.44;5057534;28;800;-41
2021/06/26 10:51:36;;;;;;;;;;;;;;;18.76;66.06;100455.13;5057328;28;728;-41
2021/06/26 10:54:11;;;;;;;;;;;;;;;19.13;67.53;100457.09;5057487;28;1910;-41
2021/06/26 10:56:36;;;;;;;;;;;;;;;19.29;68.63;100459.63;5057839;28;783;-52
2021/06/26 10:59:27;;;;;;;;;;;;;;;19.35;69.25;100466.72;5056477;28;959;-41
2021/06/26 11:02:00;;;;;;;;;;;;;;;19.39;69.06;100455.88;5053340;28;1816;-42
2021/06/26 11:04:25;;;;;;;;;;;;;;;19.39;68.32;100456.72;5056996;28;847;-42
2021/06/26 11:07:01;;;;;;;;;;;;;;;19.28;68.37;100455.25;5057289;28;724;-50
2021/06/26 11:09:33;;;;;;;;;;;;;;;19.35;69.75;100449.31;5056964;28;847;-42
2021/06/26 11:12:05;;;;;;;;;;;;;;;19.60;70.41;100456.34;5021401;28;1148;-42
2021/06/26 11:14:31;;;;;;;;;;;;;;;19.75;70.89;100458.84;5056721;28;1922;-42
2021/06/26 11:16:57;;;;;;;;;;;;;;;19.98;70.74;100468.13;5038511;28;818;-42
2021/06/26 11:19:32;;;;;;;;;;;;;;;20.32;69.80;100464.19;5056565;28;760;-43
2021/06/26 11:21:58;;;;;;;;;;;;;;;20.16;70.85;100463.66;5057049;28;847;-57
2021/06/26 11:24:42;;;;;;;;;;;;;;;20.16;71.21;100463.66;5055809;28;1155;-39
2021/06/26 11:27:08;;;;;;;;;;;;;;;20.43;70.40;100458.47;5056534;28;920;-39
2021/06/26 11:29:34;;;;;;;;;;;;;;;20.37;70.78;100455.00;5056162;28;1022;-39
2021/06/26 11:32:00;;;;;;;;;;;;;;;20.44;70.53;100452.63;5056723;28;880;-40
2021/06/26 11:34:26;;;;;;;;;;;;;;;20.07;70.11;100448.13;5056449;28;1913;-39
2021/06/26 11:36:55;;;;;;;;;;;;;;;19.54;67.42;100463.09;5056298;28;1203;-40
2021/06/26 11:39:20;;;;;;;;;;;;;;;18.85;65.75;100458.06;5056479;28;812;-42
2021/06/26 11:41:46;;;;;;;;;;;;;;;18.55;63.06;100457.31;5038530;28;895;-39
2021/06/26 11:44:11;;;;;;;;;;;;;;;18.29;60.17;100463.94;5055363;28;962;-56
2021/06/26 11:46:37;;;;;;;;;;;;;;;18.21;58.35;100472.03;5038520;28;824;-39
2021/06/26 11:49:02;;;;;;;;;;;;;;;18.34;57.35;100471.34;5056081;28;788;-42
2021/06/26 11:51:27;;;;;;;;;;;;;;;18.13;58.23;100471.56;5056266;28;847;-53
2021/06/26 11:53:53;;;;;;;;;;;;;;;18.05;59.20;100461.19;5056421;28;1909;-39
2021/06/26 11:56:19;;;;;;;;;;;;;;;18.31;61.30;100469.16;5056223;28;784;-41
2021/06/26 11:58:48;;;;;;;;;;;;;;;18.85;63.80;100463.56;5055710;28;1006;-56
2021/06/26 12:01:14;;;;;;;;;;;;;;;19.08;66.19;100457.19;5056328;28;760;-39
2021/06/26 12:03:40;;;;;;;;;;;;;;;19.29;67.44;100459.63;5056152;28;799;-57
2021/06/26 12:06:06;;;;;;;;;;;;;;;19.38;68.71;100459.78;5056039;28;803;-39
2021/06/26 12:08:39;;;;;;;;;;;;;;;19.41;68.80;100459.97;5056042;28;859;-39
2021/06/26 12:11:05;;;;;;;;;;;;;;;19.32;69.03;100462.59;5055991;28;772;-40
2021/06/26 12:13:33;;;;;;;;;;;;;;;19.55;67.75;100461.97;5055525;28;1914;-46
2021/06/26 12:15:59;;;;;;;;;;;;;;;19.54;67.51;100452.06;5056142;28;847;-41
2021/06/26 12:18:24;;;;;;;;;;;;;;;19.78;66.52;100450.00;5055441;28;823;-40
2021/06/26 12:20:49;;;;;;;;;;;;;;;19.61;66.89;100436.75;5056035;28;939;-57
2021/06/26 12:23:15;;;;;;;;;;;;;;;19.87;65.56;100438.28;5055893;28;1048;-42
2021/06/26 12:25:41;;;;;;;;;;;;;;;19.89;66.11;100438.78;5055857;28;1051;-41
2021/06/26 12:28:10;;;;;;;;;;;;;;;20.02;67.40;100437.16;5055741;28;828;-41
2021/06/26 12:30:37;;;;;;;;;;;;;;;20.05;68.49;100431.03;5055364;28;1096;-40
2021/06/26 12:33:03;;;;;;;;;;;;;;;20.11;69.36;100432.59;5055530;28;752;-40
2021/06/26 12:35:29;;;;;;;;;;;;;;;20.09;70.30;100427.38;5052737;28;1988;-40
2021/06/26 12:37:54;;;;;;;;;;;;;;;20.21;70.22;100424.09;5040041;28;768;-40
2021/06/26 12:40:22;;;;;;;;;;;;;;;20.54;69.31;100414.84;5039637;28;753;-41
2021/06/26 12:42:57;;;;;;;;;;;;;;;20.37;70.22;100410.81;5039875;28;732;-40
2021/06/26 12:45:36;;;;;;;;;;;;;;;20.57;70.04;100408.75;5056237;28;968;-41
2021/06/26 12:48:03;;;;;;;;;;;;;;;20.38;70.96;100408.84;5059359;28;806;-41